createdAt,value
2022-11-16T00:00:17.046Z,7.30
2022-11-16T00:03:09.298Z,7.30
2022-11-16T00:06:03.746Z,7.20
2022-11-16T00:09:19.478Z,7.20
2022-11-16T00:12:12.723Z,7.20
2022-11-16T00:15:06.984Z,7.10
2022-11-16T00:17:59.111Z,7.10
2022-11-16T00:20:51.659Z,7.10
2022-11-16T00:23:43.797Z,7.10
2022-11-16T00:26:36.223Z,7.00
2022-11-16T00:29:28.407Z,7.00
2022-11-16T00:32:20.515Z,6.90
2022-11-16T00:35:12.602Z,7.00
2022-11-16T00:38:04.754Z,6.90
2022-11-16T00:40:57.014Z,6.90
2022-11-16T00:43:49.236Z,7.00
2022-11-16T00:46:41.674Z,6.80
2022-11-16T00:49:33.799Z,6.70
2022-11-16T00:52:26.022Z,6.80
2022-11-16T00:55:18.128Z,6.70
2022-11-16T00:58:10.711Z,6.70
2022-11-16T01:01:08.099Z,6.70
2022-11-16T01:04:00.399Z,6.70
2022-11-16T01:06:52.530Z,6.70
2022-11-16T01:09:44.666Z,6.60
2022-11-16T01:12:38.511Z,6.70
2022-11-16T01:15:30.652Z,6.60
2022-11-16T01:18:22.780Z,6.60
2022-11-16T01:21:14.925Z,6.70
2022-11-16T01:24:07.417Z,6.70
2022-11-16T01:26:59.587Z,6.60
2022-11-16T01:29:51.723Z,6.60
2022-11-16T01:32:44.078Z,6.60
2022-11-16T01:35:36.193Z,6.70
2022-11-16T01:38:30.007Z,6.60
2022-11-16T01:41:24.674Z,6.70
2022-11-16T01:44:31.616Z,6.70
2022-11-16T01:47:23.821Z,6.70
2022-11-16T01:50:18.213Z,6.70
2022-11-16T01:53:12.121Z,6.60
2022-11-16T01:56:05.277Z,6.70
2022-11-16T01:58:57.724Z,6.70
2022-11-16T02:01:49.862Z,6.80
2022-11-16T02:04:42.743Z,6.70
2022-11-16T02:08:11.326Z,6.70
2022-11-16T02:11:22.145Z,6.70
2022-11-16T02:14:17.015Z,6.70
2022-11-16T02:17:29.386Z,6.70
2022-11-16T02:20:44.748Z,6.70
2022-11-16T02:23:43.667Z,6.80
2022-11-16T02:27:04.006Z,6.80
2022-11-16T02:29:57.194Z,6.80
2022-11-16T02:33:00.566Z,6.80
2022-11-16T02:35:56.779Z,6.80
2022-11-16T02:39:14.756Z,6.80
2022-11-16T02:42:14.058Z,6.80
2022-11-16T02:45:10.219Z,6.80
2022-11-16T02:48:12.898Z,6.80
2022-11-16T02:51:06.967Z,6.80
2022-11-16T02:54:08.910Z,6.80
2022-11-16T02:57:03.749Z,6.90
2022-11-16T02:59:58.295Z,6.80
2022-11-16T03:03:18.680Z,6.90
2022-11-16T03:06:24.520Z,6.80
2022-11-16T03:09:24.797Z,6.80
2022-11-16T03:12:22.700Z,6.80
2022-11-16T03:15:14.887Z,6.80
2022-11-16T03:18:08.603Z,6.80
2022-11-16T03:21:15.340Z,6.90
2022-11-16T03:24:08.577Z,6.80
2022-11-16T03:27:09.352Z,6.90
2022-11-16T03:30:27.699Z,6.80
2022-11-16T03:33:25.737Z,6.80
2022-11-16T03:36:32.202Z,6.90
2022-11-16T03:39:30.397Z,6.80
2022-11-16T03:42:23.984Z,6.90
2022-11-16T03:45:17.384Z,6.90
2022-11-16T03:48:09.745Z,6.90
2022-11-16T03:51:03.079Z,6.90
2022-11-16T03:53:55.196Z,6.90
2022-11-16T03:56:47.307Z,6.90
2022-11-16T03:59:39.426Z,7.00
2022-11-16T04:02:31.544Z,7.00
2022-11-16T04:05:42.460Z,7.00
2022-11-16T04:08:53.368Z,7.00
2022-11-16T04:12:04.178Z,7.00
2022-11-16T04:15:14.894Z,6.90
2022-11-16T04:18:29.154Z,7.00
2022-11-16T04:21:50.704Z,7.00
2022-11-16T04:24:47.394Z,7.00
2022-11-16T04:27:58.157Z,7.00
2022-11-16T04:31:10.672Z,7.00
2022-11-16T04:34:21.935Z,6.90
2022-11-16T04:37:46.081Z,7.00
2022-11-16T04:40:38.384Z,7.00
2022-11-16T04:43:30.504Z,7.10
2022-11-16T04:46:41.217Z,7.20
2022-11-16T04:49:33.656Z,7.30
2022-11-16T04:52:25.887Z,7.40
2022-11-16T04:55:18.083Z,7.50
2022-11-16T04:58:10.221Z,7.50
2022-11-16T05:01:02.396Z,7.60
2022-11-16T05:03:54.537Z,7.60
2022-11-16T05:06:47.360Z,7.70
2022-11-16T05:09:42.810Z,7.70
2022-11-16T05:12:35.256Z,7.80
2022-11-16T05:15:27.392Z,7.80
2022-11-16T05:18:19.513Z,7.80
2022-11-16T05:21:11.664Z,7.80
2022-11-16T05:24:22.767Z,7.80
2022-11-16T05:27:17.077Z,7.90
2022-11-16T05:30:11.278Z,7.90
2022-11-16T05:33:03.519Z,8.00
2022-11-16T05:35:55.711Z,8.00
2022-11-16T05:38:47.888Z,8.00
2022-11-16T05:41:40.043Z,8.00
2022-11-16T05:44:32.183Z,7.90
2022-11-16T05:47:24.392Z,7.90
2022-11-16T05:50:16.553Z,7.90
2022-11-16T05:53:08.677Z,7.80
2022-11-16T05:56:00.890Z,7.90
2022-11-16T05:58:53.150Z,7.80
2022-11-16T06:01:45.636Z,7.70
2022-11-16T06:04:37.786Z,7.70
2022-11-16T06:07:29.949Z,7.80
2022-11-16T06:10:22.271Z,7.60
2022-11-16T06:13:14.413Z,7.60
2022-11-16T06:16:06.807Z,7.60
2022-11-16T06:19:00.188Z,7.60
2022-11-16T06:21:52.292Z,7.60
2022-11-16T06:24:44.396Z,7.70
2022-11-16T06:27:39.959Z,7.70
2022-11-16T06:30:32.475Z,7.60
2022-11-16T06:33:24.739Z,7.60
2022-11-16T06:36:16.995Z,7.70
2022-11-16T06:39:11.335Z,7.80
2022-11-16T06:42:03.498Z,7.90
2022-11-16T06:44:55.617Z,7.90
2022-11-16T06:47:47.794Z,7.70
2022-11-16T06:50:39.966Z,7.70
2022-11-16T06:53:32.093Z,7.80
2022-11-16T06:56:24.311Z,7.80
2022-11-16T06:59:16.427Z,7.70
2022-11-16T07:02:10.895Z,7.70
2022-11-16T07:05:04.181Z,7.80
2022-11-16T07:07:56.478Z,7.80
2022-11-16T07:10:48.573Z,7.70
2022-11-16T07:13:40.739Z,7.60
2022-11-16T07:16:35.820Z,7.60
2022-11-16T07:19:27.918Z,7.50
2022-11-16T07:22:20.068Z,7.50
2022-11-16T07:25:12.250Z,7.60
2022-11-16T07:28:06.317Z,7.60
2022-11-16T07:31:07.849Z,7.50
2022-11-16T07:33:59.959Z,7.60
2022-11-16T07:36:52.091Z,7.40
2022-11-16T07:39:45.611Z,7.30
2022-11-16T07:42:37.814Z,7.20
2022-11-16T07:45:30.070Z,7.20
2022-11-16T07:48:22.208Z,7.20
2022-11-16T07:51:16.743Z,7.20
2022-11-16T07:54:11.994Z,7.20
2022-11-16T07:57:04.271Z,7.20
2022-11-16T07:59:56.369Z,7.20
2022-11-16T08:02:48.487Z,7.10
2022-11-16T08:05:40.739Z,7.10
2022-11-16T08:08:33.558Z,7.20
2022-11-16T08:11:26.154Z,7.20
2022-11-16T08:14:19.249Z,7.10
2022-11-16T08:17:11.489Z,7.10
2022-11-16T08:20:03.748Z,7.10
2022-11-16T08:22:59.799Z,7.10
2022-11-16T08:25:51.970Z,7.20
2022-11-16T08:28:46.394Z,7.30
2022-11-16T08:31:38.516Z,7.20
2022-11-16T08:34:30.602Z,7.20
2022-11-16T08:37:23.054Z,7.20
2022-11-16T08:40:15.379Z,7.30
2022-11-16T08:43:07.498Z,7.30
2022-11-16T08:46:00.244Z,7.30
2022-11-16T08:48:56.885Z,7.40
2022-11-16T08:51:49.045Z,7.30
2022-11-16T08:54:41.469Z,7.30
2022-11-16T08:57:34.849Z,7.30
2022-11-16T09:00:26.951Z,7.30
2022-11-16T09:03:19.120Z,7.30
2022-11-16T09:06:12.244Z,7.30
2022-11-16T09:09:05.096Z,7.30
2022-11-16T09:11:57.337Z,7.40
2022-11-16T09:14:49.589Z,7.40
2022-11-16T09:17:41.809Z,7.40
2022-11-16T09:20:34.026Z,7.40
2022-11-16T09:23:26.350Z,7.40
2022-11-16T09:26:21.408Z,7.50
2022-11-16T09:29:15.495Z,7.40
2022-11-16T09:32:07.655Z,7.40
2022-11-16T09:34:59.788Z,7.40
2022-11-16T09:37:51.934Z,7.40
2022-11-16T09:40:47.141Z,7.30
2022-11-16T09:43:58.199Z,7.40
2022-11-16T09:46:55.747Z,7.50
2022-11-16T09:49:56.814Z,7.60
2022-11-16T09:52:57.637Z,7.70
2022-11-16T09:56:05.871Z,7.70
2022-11-16T09:59:15.062Z,7.80
2022-11-16T10:02:31.266Z,7.80
2022-11-16T10:05:29.646Z,7.80
2022-11-16T10:08:45.000Z,7.90
2022-11-16T10:11:46.132Z,7.80
2022-11-16T10:15:01.365Z,7.80
2022-11-16T10:17:59.574Z,7.90
2022-11-16T10:21:00.398Z,7.80
2022-11-16T10:23:58.538Z,7.80
2022-11-16T10:26:59.522Z,7.90
2022-11-16T10:30:11.017Z,7.80
2022-11-16T10:33:11.188Z,7.90
2022-11-16T10:36:14.475Z,7.90
2022-11-16T10:39:16.657Z,7.90
2022-11-16T10:42:16.036Z,8.00
2022-11-16T10:45:11.716Z,8.00
2022-11-16T10:48:17.064Z,8.00
2022-11-16T10:51:10.222Z,8.10
2022-11-16T10:54:03.207Z,8.10
2022-11-16T10:57:06.231Z,8.10
2022-11-16T10:59:59.166Z,8.00
2022-11-16T11:02:51.381Z,8.10
2022-11-16T11:05:50.030Z,8.10
2022-11-16T11:08:42.190Z,8.00
2022-11-16T11:11:52.707Z,8.10
2022-11-16T11:15:10.689Z,8.10
2022-11-16T11:18:16.167Z,8.10
2022-11-16T11:21:24.562Z,8.10
2022-11-16T11:24:43.252Z,8.10
2022-11-16T11:27:35.398Z,8.10
2022-11-16T11:30:27.596Z,8.20
2022-11-16T11:33:23.636Z,8.20
2022-11-16T11:36:21.163Z,8.20
2022-11-16T11:39:13.313Z,8.20
2022-11-16T11:42:07.204Z,8.20
2022-11-16T11:45:05.390Z,8.20
2022-11-16T11:48:02.419Z,8.20
2022-11-16T11:50:58.848Z,8.20
2022-11-16T11:54:04.986Z,8.30
2022-11-16T11:56:57.325Z,8.30
2022-11-16T11:59:52.762Z,8.30
2022-11-16T12:03:17.109Z,8.30
2022-11-16T12:06:22.893Z,8.20
2022-11-16T12:09:32.680Z,8.10
2022-11-16T12:12:55.269Z,8.20
2022-11-16T12:16:06.500Z,8.20
2022-11-16T12:19:33.735Z,8.20
2022-11-16T12:22:50.888Z,8.20
2022-11-16T12:25:58.067Z,8.20
2022-11-16T12:29:28.232Z,8.30
2022-11-16T12:32:46.472Z,8.30
2022-11-16T12:36:07.262Z,8.30
2022-11-16T12:39:14.451Z,8.30
2022-11-16T12:42:09.299Z,8.30
2022-11-16T12:45:20.292Z,8.20
2022-11-16T12:48:49.777Z,8.20
2022-11-16T12:52:01.565Z,8.20
2022-11-16T12:55:34.843Z,8.20
2022-11-16T12:58:35.375Z,8.20
2022-11-16T13:02:00.562Z,8.20
2022-11-16T13:05:13.865Z,8.00
2022-11-16T13:08:15.535Z,8.10
2022-11-16T13:11:19.391Z,8.10
2022-11-16T13:14:19.072Z,8.00
2022-11-16T13:17:20.579Z,8.00
2022-11-16T13:20:31.293Z,8.00
2022-11-16T13:23:32.144Z,8.00
2022-11-16T13:27:01.723Z,8.00
2022-11-16T13:30:09.508Z,8.00
2022-11-16T13:33:49.297Z,8.00
2022-11-16T13:36:46.175Z,8.00
2022-11-16T13:40:00.966Z,8.10
2022-11-16T13:43:15.703Z,8.00
2022-11-16T13:46:17.920Z,8.00
2022-11-16T13:49:59.654Z,8.00
2022-11-16T13:56:10.327Z,8.00
2022-11-16T13:59:02.832Z,8.10
2022-11-16T14:02:04.442Z,8.00
2022-11-16T14:05:01.245Z,8.00
2022-11-16T14:07:53.432Z,8.00
2022-11-16T14:10:48.619Z,8.10
2022-11-16T14:13:45.660Z,8.10
2022-11-16T14:16:47.290Z,8.10
2022-11-16T14:19:49.207Z,8.10
2022-11-16T14:22:52.661Z,8.10
2022-11-16T14:25:47.529Z,8.00
2022-11-16T14:28:57.797Z,8.10
2022-11-16T14:31:52.360Z,8.10
2022-11-16T14:34:47.367Z,8.00
2022-11-16T14:37:40.494Z,8.10
2022-11-16T14:40:43.397Z,8.10
2022-11-16T14:43:41.452Z,8.10
2022-11-16T14:46:36.145Z,8.10
2022-11-16T14:49:30.823Z,8.10
2022-11-16T14:52:36.592Z,8.10
2022-11-16T14:55:29.113Z,8.10
2022-11-16T14:58:23.474Z,8.10
2022-11-16T15:01:18.018Z,8.10
2022-11-16T15:04:12.004Z,8.10
2022-11-16T15:07:05.555Z,8.10
2022-11-16T15:09:59.757Z,8.10
2022-11-16T15:12:54.985Z,8.10
2022-11-16T15:15:47.229Z,8.10
2022-11-16T15:18:39.428Z,8.10
2022-11-16T15:21:31.562Z,8.10
2022-11-16T15:24:32.463Z,8.20
2022-11-16T15:27:35.252Z,8.20
2022-11-16T15:30:34.108Z,8.40
2022-11-16T15:33:32.473Z,8.50
2022-11-16T15:36:26.370Z,8.60
2022-11-16T15:39:23.888Z,8.50
2022-11-16T15:42:16.561Z,8.60
2022-11-16T15:45:18.635Z,8.60
2022-11-16T15:48:18.833Z,8.70
2022-11-16T15:51:15.375Z,8.80
2022-11-16T15:54:21.409Z,8.80
2022-11-16T15:57:13.015Z,8.70
2022-11-16T16:00:05.574Z,8.70
2022-11-16T16:03:21.905Z,8.90
2022-11-16T16:06:15.825Z,8.90
2022-11-16T16:09:20.897Z,8.90
2022-11-16T16:12:26.356Z,8.90
2022-11-16T16:15:36.802Z,8.90
2022-11-16T16:18:40.723Z,8.80
2022-11-16T16:21:42.517Z,8.80
2022-11-16T16:24:38.206Z,8.70
2022-11-16T16:27:32.015Z,8.70
2022-11-16T16:30:24.368Z,8.70
2022-11-16T16:33:19.789Z,8.70
2022-11-16T16:36:13.562Z,8.80
2022-11-16T16:39:05.722Z,8.90
2022-11-16T16:41:57.987Z,8.90
2022-11-16T16:44:50.630Z,8.90
2022-11-16T16:47:42.744Z,9.00
2022-11-16T16:50:35.683Z,9.10
2022-11-16T16:53:27.788Z,9.10
2022-11-16T16:56:20.065Z,9.20
2022-11-16T16:59:13.735Z,9.20
2022-11-16T17:02:05.872Z,9.40
2022-11-16T17:04:57.997Z,9.40
2022-11-16T17:07:50.225Z,9.30
2022-11-16T17:10:42.393Z,9.30
2022-11-16T17:13:34.914Z,9.30
2022-11-16T17:16:27.329Z,9.30
2022-11-16T17:19:23.475Z,9.40
2022-11-16T17:22:15.754Z,9.50
2022-11-16T17:25:08.622Z,9.60
2022-11-16T17:28:00.887Z,9.50
2022-11-16T17:30:53.024Z,9.60
2022-11-16T17:33:45.178Z,9.60
2022-11-16T17:36:37.335Z,9.60
2022-11-16T17:39:29.657Z,9.50
2022-11-16T17:42:23.370Z,9.50
2022-11-16T17:45:15.543Z,9.40
2022-11-16T17:48:07.683Z,9.50
2022-11-16T17:51:00.086Z,9.50
2022-11-16T17:53:52.888Z,9.50
2022-11-16T17:56:45.009Z,9.50
2022-11-16T17:59:37.132Z,9.50
2022-11-16T18:02:29.285Z,9.50
2022-11-16T18:05:21.428Z,9.50
2022-11-16T18:08:13.563Z,9.50
2022-11-16T18:11:15.742Z,9.50
2022-11-16T18:14:07.921Z,9.50
2022-11-16T18:17:00.064Z,9.50
2022-11-16T18:19:52.183Z,9.60
2022-11-16T18:22:44.729Z,9.60
2022-11-16T18:25:36.955Z,9.50
2022-11-16T18:28:30.266Z,9.60
2022-11-16T18:31:24.010Z,9.60
2022-11-16T18:34:16.782Z,9.60
2022-11-16T18:37:09.253Z,9.50
2022-11-16T18:40:01.438Z,9.10
2022-11-16T18:42:53.547Z,9.10
2022-11-16T18:45:45.678Z,8.90
2022-11-16T18:48:37.887Z,8.70
2022-11-16T18:51:30.123Z,8.50
2022-11-16T18:54:22.221Z,8.40
2022-11-16T18:57:14.337Z,8.30
2022-11-16T19:00:07.242Z,8.30
2022-11-16T19:02:59.389Z,8.20
2022-11-16T19:05:59.239Z,8.20
2022-11-16T19:08:59.122Z,8.20
2022-11-16T19:11:51.725Z,8.20
2022-11-16T19:14:43.866Z,8.20
2022-11-16T19:17:53.164Z,8.10
2022-11-16T19:20:48.120Z,8.20
2022-11-16T19:23:45.347Z,8.20
2022-11-16T19:26:37.423Z,8.20
2022-11-16T19:29:29.522Z,8.20
2022-11-16T19:32:21.617Z,8.20
2022-11-16T19:35:16.071Z,8.20
2022-11-16T19:38:08.206Z,8.20
2022-11-16T19:41:00.339Z,8.20
2022-11-16T19:43:59.063Z,8.10
2022-11-16T19:46:53.127Z,8.10
2022-11-16T19:49:46.363Z,8.10
2022-11-16T19:52:38.591Z,8.10
2022-11-16T19:55:30.850Z,8.10
2022-11-16T19:58:22.997Z,8.10
2022-11-16T20:01:27.553Z,8.10
2022-11-16T20:04:19.825Z,8.00
2022-11-16T20:07:13.482Z,8.10
2022-11-16T20:10:06.801Z,8.10
2022-11-16T20:12:59.075Z,8.00
2022-11-16T20:15:51.220Z,8.10
2022-11-16T20:18:44.316Z,8.10
2022-11-16T20:21:38.991Z,8.00
2022-11-16T20:24:31.194Z,8.20
2022-11-16T20:27:23.313Z,8.30
2022-11-16T20:30:15.779Z,8.40
2022-11-16T20:33:08.053Z,8.50
2022-11-16T20:36:01.896Z,8.50
2022-11-16T20:38:54.197Z,8.60
2022-11-16T20:41:47.948Z,8.70
2022-11-16T20:44:40.074Z,8.70
2022-11-16T20:47:32.176Z,8.70
2022-11-16T20:50:24.359Z,8.70
2022-11-16T20:53:16.514Z,8.80
2022-11-16T20:56:10.484Z,8.80
2022-11-16T20:59:02.694Z,8.80
2022-11-16T21:01:55.148Z,8.80
2022-11-16T21:04:47.269Z,8.80
2022-11-16T21:07:41.744Z,8.70
2022-11-16T21:10:36.400Z,8.80
2022-11-16T21:13:47.376Z,8.80
2022-11-16T21:16:39.683Z,8.80
2022-11-16T21:19:31.815Z,8.80
2022-11-16T21:22:25.942Z,8.80
2022-11-16T21:25:20.488Z,8.70
2022-11-16T21:28:12.608Z,8.60
2022-11-16T21:31:13.402Z,8.70
2022-11-16T21:34:07.286Z,8.60
2022-11-16T21:36:59.391Z,8.60
2022-11-16T21:39:51.522Z,8.60
2022-11-16T21:42:43.628Z,8.60
2022-11-16T21:45:35.745Z,8.70
2022-11-16T21:48:27.854Z,8.80
2022-11-16T21:51:21.962Z,8.80
2022-11-16T21:54:14.111Z,8.80
2022-11-16T21:57:06.225Z,8.80
2022-11-16T21:59:58.403Z,8.80
2022-11-16T22:02:50.550Z,8.90
2022-11-16T22:06:01.228Z,8.80
2022-11-16T22:08:53.456Z,8.80
2022-11-16T22:11:45.599Z,8.80
2022-11-16T22:14:37.781Z,8.80
2022-11-16T22:17:29.973Z,8.80
2022-11-16T22:20:22.476Z,8.90
2022-11-16T22:23:18.662Z,8.90
2022-11-16T22:26:14.832Z,8.90
2022-11-16T22:29:06.951Z,8.90
2022-11-16T22:31:59.080Z,8.80
2022-11-16T22:34:51.453Z,8.80
2022-11-16T22:37:43.574Z,8.80
2022-11-16T22:40:35.679Z,8.70
2022-11-16T22:43:29.710Z,8.70
2022-11-16T22:46:21.866Z,8.80
2022-11-16T22:49:14.001Z,8.80
2022-11-16T22:52:06.167Z,8.70
2022-11-16T22:54:58.303Z,8.80
2022-11-16T22:57:50.853Z,8.80
2022-11-16T23:00:42.981Z,8.80
2022-11-16T23:03:36.074Z,8.70
2022-11-16T23:06:28.625Z,8.70
2022-11-16T23:09:20.743Z,8.70
2022-11-16T23:12:31.437Z,8.70
2022-11-16T23:15:42.074Z,8.60
2022-11-16T23:18:34.167Z,8.40
2022-11-16T23:21:44.970Z,8.40
2022-11-16T23:24:55.595Z,8.20
2022-11-16T23:27:53.808Z,8.00
2022-11-16T23:30:46.176Z,7.90
2022-11-16T23:33:44.459Z,7.80
2022-11-16T23:36:36.574Z,7.80
2022-11-16T23:39:28.696Z,7.70
2022-11-16T23:42:39.117Z,7.70
2022-11-16T23:45:31.341Z,7.70
2022-11-16T23:48:23.490Z,7.70
2022-11-16T23:51:18.638Z,7.70
2022-11-16T23:54:10.761Z,7.70
2022-11-16T23:57:03.013Z,7.70
2022-11-16T23:59:55.130Z,7.80
